weather.gov     
National Weather Service

Terminal Aerodrome Forecast
NWS Homepage
This page is being discontinued on March 12, 2014.
The same data is available at this site. Please update your bookmarks.
Thank you, and we apologize for the inconvenience.
Please send an email to SR-SRH.Webmaster@noaa.gov with any concerns.


Current Version
Previous Version:    01  02  03  04  05  06  07  08  09  10  11  12  13  14  15  16  17  18  19  20  21  22  23  24  25  26  27  28  29  30  
   31  32  33  34  35  36  37  38  39  
[Printable]
857
FTUS42 KFFC 020000 AAA
TAFCSG
TAF AMD
KCSG 020058Z 0201/0224 09005KT P6SM SCT080 BKN150
     FM020200 00000KT P6SM SCT150 SCT250
     FM021400 31004KT P6SM SCT030 SCT150
     FM021800 28005KT P6SM SCT045 SCT150 PROB30 0219/0223 VRB15G30KT
      5SM TSRA BKN040CB=


U.S. Dept. of Commerce
NOAA National Weather Service
1325 East West Highway
Silver Spring, MD 20910
E-mail: w-nws.webmaster@noaa.gov
Page last modified: May 16, 2007
NATIONAL WEATHER SERVICE: for Safety, for Work, for Fun - FOR LIFE